Time;durP1;ratioP1;P1;durP2;ratioP2;P2;SDS_P1;SDS_P2;PMS_P1;PMS_P2;Temp;Humidity;BMP_temperature;BMP_pressure;BME280_temperature;BME280_humidity;BME280_pressure;Samples;Min_cycle;Max_cycle;Signal;HPM_P1;HPM_P2
2022/08/12 00:45:07;;;;;;;4.40;1.80;;;;;;;14.34;56.49;97516.44;5024126;28;20128;-59
2022/08/12 00:47:34;;;;;;;3.60;1.80;;;;;;;14.29;56.52;97509.09;5023515;28;20041;-59
2022/08/12 00:50:01;;;;;;;3.25;2.00;;;;;;;14.21;56.87;97506.09;5022147;28;20413;-58
2022/08/12 00:52:28;;;;;;;3.50;2.20;;;;;;;14.37;56.51;97505.00;5024391;28;20045;-60
2022/08/12 00:54:57;;;;;;;3.42;2.00;;;;;;;14.19;56.91;97511.81;5020346;28;20076;-60
2022/08/12 00:57:29;;;;;;;6.22;1.90;;;;;;;14.17;56.98;97509.38;5022736;28;20041;-60
2022/08/12 00:59:58;;;;;;;3.67;2.22;;;;;;;14.12;57.39;97516.72;5030455;28;20049;-61
2022/08/12 01:02:37;;;;;;;5.75;2.13;;;;;;;14.27;56.65;97514.00;5028802;28;20565;-60
2022/08/12 01:13:33;;;;;;;3.40;2.03;;;;;;;13.97;57.84;97512.91;5013370;28;20033;-60
2022/08/12 01:16:03;;;;;;;5.53;2.45;;;;;;;13.96;57.59;97514.00;5027997;28;20046;-59
2022/08/12 01:18:32;;;;;;;6.57;2.42;;;;;;;14.02;57.54;97507.47;5013314;28;20559;-59
2022/08/12 01:21:10;;;;;;;3.17;2.20;;;;;;;13.98;58.04;97511.81;5019788;28;20104;-60
2022/08/12 01:23:59;;;;;;;8.70;2.40;;;;;;;13.98;57.83;97503.66;5010373;28;20358;-60
2022/08/12 01:26:46;;;;;;;4.13;2.10;;;;;;;14.07;57.54;97506.66;5010374;28;20050;-60
2022/08/12 01:29:25;;;;;;;5.05;2.20;;;;;;;13.86;58.55;97495.72;5017856;28;20729;-60
2022/08/12 01:31:54;;;;;;;5.88;2.55;;;;;;;13.79;58.49;97506.88;5025176;28;20473;-60
2022/08/12 01:34:27;;;;;;;4.38;2.47;;;;;;;13.79;58.92;97504.16;5022398;28;20501;-59
2022/08/12 01:37:08;;;;;;;3.90;2.53;;;;;;;13.83;58.72;97501.75;5025550;28;20099;-60
2022/08/12 01:39:46;;;;;;;3.28;1.92;;;;;;;13.65;59.96;97506.59;5027826;28;20041;-60
2022/08/12 01:42:46;;;;;;;5.03;2.03;;;;;;;13.62;60.07;97506.31;5028722;28;20096;-60
2022/08/12 01:45:14;;;;;;;3.50;2.10;;;;;;;13.67;59.58;97500.06;5027091;28;20448;-60
2022/08/12 01:48:11;;;;;;;5.53;2.20;;;;;;;13.63;59.62;97495.16;5028757;28;20056;-61
2022/08/12 01:51:08;;;;;;;3.55;2.20;;;;;;;13.69;59.50;97492.44;5010903;28;20046;-59
2022/08/12 01:54:06;;;;;;;3.97;2.40;;;;;;;13.51;60.27;97489.97;5009565;28;20497;-60
2022/08/12 01:56:49;;;;;;;3.30;2.10;;;;;;;13.53;60.21;97497.88;5020901;28;20511;-59
2022/08/12 02:02:15;;;;;;;4.75;2.42;;;;;;;13.44;60.57;97492.09;5026178;28;20052;-59
2022/08/12 02:11:17;;;;;;;5.60;2.17;;;;;;;13.50;60.91;97479.34;5025701;28;20083;-59
2022/08/12 02:14:19;;;;;;;6.03;2.20;;;;;;;13.57;60.98;97479.94;5026147;28;20102;-60
2022/08/12 02:17:21;;;;;;;3.13;2.00;;;;;;;13.65;60.63;97478.56;5006032;28;20112;-60
2022/08/12 02:20:37;;;;;;;4.47;2.33;;;;;;;13.46;61.69;97472.78;5008477;28;20567;-60
2022/08/12 02:23:25;;;;;;;5.25;2.22;;;;;;;13.35;62.16;97480.09;5008336;28;20343;-59
2022/08/12 02:25:56;;;;;;;3.50;2.10;;;;;;;13.37;62.15;97481.47;5027185;28;20134;-60
2022/08/12 02:28:24;;;;;;;3.35;2.00;;;;;;;13.53;61.74;97478.84;5027709;28;20352;-60
2022/08/12 02:30:50;;;;;;;3.85;2.38;;;;;;;13.61;61.62;97488.34;5008644;28;20297;-60
2022/08/12 02:33:18;;;;;;;4.38;2.33;;;;;;;13.52;61.98;97485.34;5007648;28;20050;-59
2022/08/12 02:35:46;;;;;;;3.78;2.30;;;;;;;13.45;61.90;97482.03;5025328;28;20057;-59
2022/08/12 02:38:13;;;;;;;3.95;2.78;;;;;;;13.30;62.44;97482.81;5014219;28;20050;-60
2022/08/12 02:40:43;;;;;;;4.70;2.00;;;;;;;13.20;62.90;97489.81;5013575;28;20050;-59
2022/08/12 02:43:29;;;;;;;6.80;2.47;;;;;;;13.24;62.97;97484.69;5027728;28;20046;-58
2022/08/12 02:46:10;;;;;;;3.90;2.30;;;;;;;13.26;63.12;97486.06;5020600;28;20076;-59
2022/08/12 02:48:57;;;;;;;3.13;2.00;;;;;;;13.20;63.43;97476.22;5025600;28;20045;-60
2022/08/12 02:51:33;;;;;;;4.53;2.72;;;;;;;13.14;63.62;97474.59;5006667;28;20045;-59
2022/08/12 02:54:02;;;;;;;4.43;2.58;;;;;;;13.10;64.01;97476.22;5010699;28;20041;-59
2022/08/12 02:56:40;;;;;;;3.67;2.47;;;;;;;12.92;64.62;97480.19;5027714;28;20041;-59
2022/08/12 02:59:15;;;;;;;4.47;2.28;;;;;;;13.05;64.06;97482.44;5021029;28;20042;-60
2022/08/12 03:02:07;;;;;;;3.70;2.40;;;;;;;12.92;64.59;97474.75;5008277;28;20103;-60
2022/08/12 03:04:45;;;;;;;4.10;2.55;;;;;;;12.82;65.18;97483.69;5020333;28;20648;-60
2022/08/12 03:07:30;;;;;;;5.53;2.40;;;;;;;12.77;64.92;97476.34;5007533;28;20060;-60
2022/08/12 03:10:20;;;;;;;4.25;2.20;;;;;;;12.80;64.94;97475.81;5020322;28;20140;-60
2022/08/12 03:13:05;;;;;;;4.05;2.50;;;;;;;12.52;66.32;97482.41;5027403;28;20099;-60
2022/08/12 03:15:34;;;;;;;4.30;2.33;;;;;;;12.74;65.18;97476.84;5021440;28;20103;-60
2022/08/12 03:18:07;;;;;;;4.70;2.45;;;;;;;12.74;65.12;97487.72;5026365;28;20401;-60
2022/08/12 03:20:54;;;;;;;3.80;2.50;;;;;;;12.59;65.64;97485.72;5007128;28;20053;-60
2022/08/12 03:23:21;;;;;;;4.03;2.20;;;;;;;12.69;65.42;97484.97;5006943;28;20053;-60
2022/08/12 03:26:00;;;;;;;4.78;2.70;;;;;;;12.77;64.92;97475.50;5025130;28;20084;-59
2022/08/12 03:31:34;;;;;;;6.95;2.63;;;;;;;13.05;63.68;97485.16;5006893;28;20052;-59
2022/08/12 03:34:09;;;;;;;4.30;2.42;;;;;;;13.17;63.02;97484.13;5024609;28;20049;-59
2022/08/12 03:36:38;;;;;;;6.35;2.75;;;;;;;13.16;63.33;97482.50;5016784;28;20091;-60
2022/08/12 03:42:20;;;;;;;4.60;2.47;;;;;;;12.99;63.87;97489.78;5025196;28;20076;-60
2022/08/12 04:01:57;;;;;;;5.15;2.47;;;;;;;13.10;63.13;97490.63;5024416;28;20057;-59
2022/08/12 04:04:32;;;;;;;5.75;2.88;;;;;;;12.98;63.47;97481.88;5025702;28;20531;-60
2022/08/12 04:07:02;;;;;;;4.82;2.60;;;;;;;12.88;63.98;97486.19;5025782;28;20123;-59
2022/08/12 04:09:29;;;;;;;5.25;2.78;;;;;;;12.82;64.35;97487.22;5017290;28;20049;-58
2022/08/12 04:14:40;;;;;;;4.93;2.47;;;;;;;12.80;64.40;97492.13;5021959;28;20139;-53
2022/08/12 04:17:07;;;;;;;5.28;2.47;;;;;;;12.88;64.33;97488.06;5024059;28;20432;-54
2022/08/12 04:19:35;;;;;;;7.00;2.50;;;;;;;12.76;64.86;97491.00;5016943;28;20477;-58
2022/08/12 04:22:02;;;;;;;6.53;2.63;;;;;;;12.82;64.74;97492.66;5015909;28;20080;-57
2022/08/12 04:24:34;;;;;;;6.05;2.63;;;;;;;12.90;64.09;97487.81;5023158;28;20045;-58
2022/08/12 04:27:07;;;;;;;4.25;2.80;;;;;;;13.02;63.90;97491.13;5017933;28;20107;-58
2022/08/12 04:29:34;;;;;;;6.75;2.80;;;;;;;12.92;64.08;97491.91;5021894;28;20041;-58
2022/08/12 04:32:20;;;;;;;4.78;2.65;;;;;;;13.04;63.54;97488.94;5022886;28;20072;-58
2022/08/12 04:34:48;;;;;;;5.95;2.97;;;;;;;13.13;63.35;97487.34;5023338;28;20049;-59
2022/08/12 04:37:15;;;;;;;5.78;2.58;;;;;;;13.31;62.63;97487.16;5023649;28;20037;-57
2022/08/12 04:39:43;;;;;;;5.57;2.70;;;;;;;12.88;64.47;97486.19;5022546;28;20537;-58
2022/08/12 04:42:10;;;;;;;4.57;2.78;;;;;;;12.80;64.64;97480.41;5023984;28;20053;-58
2022/08/12 04:44:36;;;;;;;4.40;2.90;;;;;;;12.63;65.29;97477.91;5023407;28;20464;-57
2022/08/12 04:47:03;;;;;;;4.75;3.00;;;;;;;12.77;64.90;97483.66;5023506;28;20042;-58
2022/08/12 04:49:32;;;;;;;5.03;2.72;;;;;;;13.05;63.98;97479.72;5018141;28;20042;-58
2022/08/12 04:51:59;;;;;;;5.15;2.75;;;;;;;13.27;63.30;97479.53;5023231;28;20053;-57
2022/08/12 04:54:26;;;;;;;5.15;2.97;;;;;;;13.47;62.72;97479.84;5021086;28;20045;-58
2022/08/12 04:56:53;;;;;;;4.60;2.42;;;;;;;13.62;62.17;97482.66;5020476;28;20051;-57
2022/08/12 04:59:34;;;;;;;5.25;3.13;;;;;;;13.82;61.76;97483.75;5019248;28;20065;-58
2022/08/12 05:02:20;;;;;;;4.63;2.85;;;;;;;13.65;62.23;97476.66;5022573;28;20041;-57
2022/08/12 05:04:54;;;;;;;4.35;2.45;;;;;;;13.50;63.23;97482.88;5020910;28;20501;-55
2022/08/12 05:07:22;;;;;;;8.00;3.03;;;;;;;13.46;63.47;97476.34;5018806;28;20037;-54
2022/08/12 05:09:49;;;;;;;7.00;2.55;;;;;;;13.33;64.01;97483.09;5012839;28;20050;-57
2022/08/12 05:12:35;;;;;;;4.78;2.55;;;;;;;13.24;64.65;97482.78;5014205;28;20057;-52
2022/08/12 05:15:05;;;;;;;4.90;2.67;;;;;;;13.16;64.93;97487.94;5011573;28;20052;-60
2022/08/12 05:17:45;;;;;;;5.75;2.90;;;;;;;13.21;65.11;97490.66;5015635;28;20045;-60
2022/08/12 05:20:15;;;;;;;5.05;3.08;;;;;;;13.09;65.88;97488.97;5013485;28;20048;-56
2022/08/12 05:22:45;;;;;;;4.72;2.65;;;;;;;13.12;66.31;97493.88;5017554;28;20049;-59
2022/08/12 05:25:14;;;;;;;5.88;2.83;;;;;;;13.26;65.52;97501.53;5021293;28;20496;-58
2022/08/12 05:27:44;;;;;;;6.07;2.80;;;;;;;13.34;65.79;97501.03;5017891;28;20033;-57
2022/08/12 05:30:26;;;;;;;5.10;2.40;;;;;;;13.39;66.06;97508.41;5023386;28;20420;-60
2022/08/12 05:32:54;;;;;;;4.40;2.50;;;;;;;13.50;65.73;97512.81;5022790;28;20050;-60
2022/08/12 05:35:25;;;;;;;5.65;2.70;;;;;;;13.61;65.47;97512.84;5023650;28;20049;-60
2022/08/12 05:40:40;;;;;;;5.63;2.63;;;;;;;13.95;64.47;97520.53;5007963;28;20064;-60
2022/08/12 05:43:06;;;;;;;4.95;2.20;;;;;;;14.20;63.93;97520.81;5019355;28;20041;-59
2022/08/12 05:45:33;;;;;;;4.53;2.30;;;;;;;14.41;63.35;97521.63;5016925;28;20531;-58
2022/08/12 05:48:01;;;;;;;6.30;2.70;;;;;;;14.56;63.19;97528.97;5026885;28;20090;-57
2022/08/12 05:50:28;;;;;;;4.03;2.60;;;;;;;14.75;62.19;97531.13;5026122;28;20596;-58
2022/08/12 05:52:54;;;;;;;4.05;2.40;;;;;;;14.89;62.31;97534.13;5026806;28;20045;-55
2022/08/12 05:55:21;;;;;;;4.15;2.33;;;;;;;15.02;61.95;97532.72;5022826;28;20041;-54
2022/08/12 05:57:55;;;;;;;3.58;2.28;;;;;;;15.13;62.91;97534.34;5024073;28;20065;-57
2022/08/12 06:00:24;;;;;;;6.20;2.75;;;;;;;15.35;61.37;97533.16;5026029;28;20467;-57
2022/08/12 06:02:59;;;;;;;4.35;2.55;;;;;;;15.60;60.24;97539.59;5025821;28;20045;-58
2022/08/12 06:05:27;;;;;;;4.13;2.38;;;;;;;16.07;57.23;97523.75;5026596;28;20052;-59
2022/08/12 06:07:56;;;;;;;7.47;2.35;;;;;;;16.51;55.44;97527.50;5020476;28;20049;-58
2022/08/12 06:10:29;;;;;;;6.30;2.40;;;;;;;16.83;53.85;97532.69;5017269;28;20643;-58
2022/08/12 06:12:59;;;;;;;4.00;2.45;;;;;;;17.13;52.44;97536.22;5027937;28;20045;-56
2022/08/12 06:15:26;;;;;;;5.97;2.60;;;;;;;17.36;51.41;97536.53;5024337;28;20091;-59
2022/08/12 06:17:54;;;;;;;4.43;2.40;;;;;;;17.54;51.17;97540.38;5013571;28;20038;-57
2022/08/12 06:20:20;;;;;;;4.60;2.50;;;;;;;17.70;50.90;97535.53;5021297;28;20042;-55
2022/08/12 06:22:55;;;;;;;4.30;2.45;;;;;;;17.80;50.88;97540.06;5021529;28;20049;-59
2022/08/12 06:25:25;;;;;;;3.33;2.13;;;;;;;17.89;50.21;97531.97;5018106;28;20120;-64
2022/08/12 06:27:52;;;;;;;5.93;2.60;;;;;;;18.01;49.97;97540.56;5018992;28;20057;-64
2022/08/12 06:30:34;;;;;;;3.53;2.22;;;;;;;18.10;49.79;97537.19;5021949;28;20053;-64
2022/08/12 06:33:05;;;;;;;9.20;3.42;;;;;;;18.20;49.76;97528.78;5016699;28;20053;-64
2022/08/12 06:35:51;;;;;;;3.85;2.50;;;;;;;18.28;48.95;97530.84;5023893;28;20050;-64
2022/08/12 06:38:26;;;;;;;4.70;2.15;;;;;;;18.37;48.81;97531.00;5024248;28;20052;-64
2022/08/12 06:43:42;;;;;;;5.05;2.22;;;;;;;18.61;48.38;97521.81;5014571;28;20041;-63
2022/08/12 06:46:29;;;;;;;6.78;2.50;;;;;;;18.79;47.64;97525.63;5023997;28;20099;-64
2022/08/12 06:48:57;;;;;;;7.03;2.30;;;;;;;18.89;47.21;97526.53;5025289;28;20053;-63
2022/08/12 06:51:26;;;;;;;;;;;;;;;18.93;47.34;97520.16;5025587;28;20038;-62
2022/08/12 06:53:52;;;;;;;5.55;2.55;;;;;;;19.10;46.92;97525.06;5025669;28;20351;-63
2022/08/12 06:56:19;;;;;;;5.55;2.05;;;;;;;19.14;47.08;97519.78;5022151;28;20038;-64
2022/08/12 06:58:45;;;;;;;4.28;1.95;;;;;;;19.21;46.66;97522.91;5024657;28;20041;-64
2022/08/12 07:01:13;;;;;;;3.83;2.28;;;;;;;19.32;46.03;97525.47;5020207;28;20404;-64
2022/08/12 07:03:40;;;;;;;4.13;2.13;;;;;;;19.37;46.06;97522.63;5024823;28;20070;-61
2022/08/12 07:06:12;;;;;;;5.80;2.05;;;;;;;19.42;45.66;97530.75;5023759;28;20052;-63
2022/08/12 07:08:40;;;;;;;4.90;2.28;;;;;;;19.51;45.37;97539.09;5021966;28;20363;-63
2022/08/12 07:11:08;;;;;;;3.20;1.98;;;;;;;19.55;45.25;97533.78;5023616;28;20045;-63
2022/08/12 07:13:41;;;;;;;10.88;2.38;;;;;;;19.65;45.19;97535.50;5015347;28;20524;-64
2022/08/12 07:16:51;;;;;;;4.75;2.13;;;;;;;19.73;45.15;97529.28;5019887;28;20268;-64
2022/08/12 07:19:18;;;;;;;5.40;2.17;;;;;;;19.78;45.13;97534.66;5023816;28;20052;-64
2022/08/12 07:21:46;;;;;;;4.78;2.22;;;;;;;19.92;44.48;97531.88;5023733;28;20501;-64
2022/08/12 07:24:28;;;;;;;5.63;2.20;;;;;;;19.97;44.50;97534.50;5023701;28;20046;-63
2022/08/12 07:26:55;;;;;;;4.43;2.10;;;;;;;20.04;44.69;97536.84;5023792;28;20049;-64
2022/08/12 07:29:21;;;;;;;3.75;2.08;;;;;;;20.08;44.38;97534.31;5024290;28;20056;-64
2022/08/12 07:31:48;;;;;;;7.18;2.55;;;;;;;20.12;44.33;97536.13;5025318;28;20432;-64
2022/08/12 07:34:15;;;;;;;6.43;2.20;;;;;;;20.17;43.75;97539.88;5017807;28;20053;-65
2022/08/12 07:36:42;;;;;;;4.30;2.03;;;;;;;20.29;43.55;97531.88;5024743;28;20060;-64
2022/08/12 07:39:09;;;;;;;6.53;2.28;;;;;;;20.35;43.45;97527.88;5011573;28;20120;-64
2022/08/12 07:41:36;;;;;;;5.55;1.95;;;;;;;20.44;43.32;97529.88;5024080;28;20056;-63
2022/08/12 07:44:05;;;;;;;3.80;2.05;;;;;;;20.51;43.05;97528.31;5026915;28;20315;-62
2022/08/12 07:46:39;;;;;;;4.45;2.45;;;;;;;20.58;42.97;97536.13;5009107;28;20394;-62
2022/08/12 07:49:08;;;;;;;5.03;2.00;;;;;;;20.76;42.70;97539.78;5006798;28;20096;-62
2022/08/12 07:51:35;;;;;;;6.40;1.83;;;;;;;20.98;41.67;97537.31;5007039;28;20050;-62
2022/08/12 07:54:08;;;;;;;5.75;2.15;;;;;;;21.03;42.28;97539.94;5012257;28;20045;-62
2022/08/12 07:56:37;;;;;;;7.05;2.20;;;;;;;21.13;41.00;97538.84;5023885;28;20725;-62
2022/08/12 07:59:06;;;;;;;6.60;2.35;;;;;;;21.14;41.00;97530.28;5022796;28;20091;-62
2022/08/12 08:01:33;;;;;;;8.63;2.22;;;;;;;21.23;41.17;97530.28;5024296;28;20096;-62
2022/08/12 08:06:46;;;;;;;3.08;1.90;;;;;;;21.44;40.16;97524.19;5013094;28;20030;-62
2022/08/12 08:09:15;;;;;;;5.97;2.20;;;;;;;21.56;40.01;97526.34;5024171;28;20482;-62
2022/08/12 08:14:31;;;;;;;4.70;1.90;;;;;;;21.71;39.04;97519.56;5026566;28;20049;-65
2022/08/12 08:16:59;;;;;;;5.18;2.00;;;;;;;21.78;39.62;97519.13;5006372;28;20119;-62
2022/08/12 08:19:27;;;;;;;4.07;1.98;;;;;;;21.66;39.02;97522.47;5022323;28;20041;-62
2022/08/12 08:21:57;;;;;;;4.47;1.80;;;;;;;21.69;39.28;97519.06;5023963;28;20041;-62
2022/08/12 08:24:26;;;;;;;5.30;1.75;;;;;;;21.75;39.29;97526.09;5025775;28;20479;-62
2022/08/12 08:26:55;;;;;;;3.85;2.00;;;;;;;21.85;38.71;97527.72;5025642;28;20037;-62
2022/08/12 08:29:23;;;;;;;6.45;2.25;;;;;;;21.93;38.62;97526.91;5026016;28;20042;-62
2022/08/12 08:31:53;;;;;;;6.13;2.50;;;;;;;22.14;38.43;97526.25;5026476;28;20049;-62
2022/08/12 08:34:20;;;;;;;5.53;2.05;;;;;;;22.20;37.79;97530.50;5026149;28;20048;-63
2022/08/12 08:37:07;;;;;;;3.85;1.85;;;;;;;22.32;38.02;97532.59;5019775;28;20108;-63
2022/08/12 08:39:40;;;;;;;6.15;2.10;;;;;;;22.30;37.57;97531.28;5005952;28;20073;-63
2022/08/12 08:44:57;;;;;;;4.40;1.90;;;;;;;22.52;37.33;97526.72;5007346;28;20058;-64
2022/08/12 08:47:24;;;;;;;6.30;1.83;;;;;;;22.64;37.23;97529.66;5005841;28;20112;-64
2022/08/12 08:49:51;;;;;;;3.97;1.67;;;;;;;22.67;37.26;97526.22;5005701;28;20042;-64
2022/08/12 08:52:22;;;;;;;5.20;2.08;;;;;;;22.86;37.12;97516.75;5006201;28;20498;-64
2022/08/12 08:55:05;;;;;;;5.40;1.65;;;;;;;22.99;35.49;97517.66;5011075;28;20494;-63
2022/08/12 08:57:32;;;;;;;9.10;1.63;;;;;;;22.94;35.71;97515.91;5017797;28;20049;-64
2022/08/12 09:00:20;;;;;;;4.43;2.00;;;;;;;23.07;36.01;97529.84;5026822;28;20112;-63
2022/08/12 09:02:48;;;;;;;5.97;1.75;;;;;;;23.04;35.91;97516.69;5037685;28;20489;-63
2022/08/12 09:05:26;;;;;;;4.82;1.77;;;;;;;23.16;36.17;97511.28;5034831;28;20330;-63
2022/08/12 09:07:54;;;;;;;6.70;1.90;;;;;;;23.50;34.37;97515.03;5025164;28;20046;-63
2022/08/12 09:10:39;;;;;;;3.28;1.55;;;;;;;23.62;33.30;97510.75;5014163;28;20527;-63
2022/08/12 09:13:33;;;;;;;5.70;1.90;;;;;;;23.67;33.44;97509.72;5023368;28;20108;-64
2022/08/12 09:16:20;;;;;;;3.65;1.48;;;;;;;23.86;32.66;97512.03;5016892;28;20045;-63
2022/08/12 09:18:49;;;;;;;5.63;1.40;;;;;;;23.78;32.31;97508.97;5022510;28;20413;-63
2022/08/12 09:21:35;;;;;;;3.95;1.58;;;;;;;23.84;32.62;97519.84;5027457;28;20049;-62
2022/08/12 09:24:20;;;;;;;2.83;1.30;;;;;;;23.82;31.42;97505.53;5025906;28;20079;-63
2022/08/12 09:26:48;;;;;;;2.97;1.40;;;;;;;24.03;31.32;97500.81;5026797;28;20416;-63
2022/08/12 09:29:19;;;;;;;2.70;1.42;;;;;;;23.98;31.38;97506.56;5027473;28;20045;-63
2022/08/12 09:32:06;;;;;;;2.65;1.60;;;;;;;24.03;31.64;97514.66;5027260;28;20068;-63
2022/08/12 09:34:36;;;;;;;3.42;1.50;;;;;;;24.14;31.77;97514.28;5029252;28;20116;-62
2022/08/12 09:37:08;;;;;;;3.47;1.60;;;;;;;24.20;32.01;97501.84;5025032;28;20132;-63
2022/08/12 09:39:49;;;;;;;3.65;1.50;;;;;;;24.34;31.79;97503.50;5028759;28;20042;-63
2022/08/12 09:45:44;;;;;;;3.85;2.47;;;;;;;24.21;31.60;97488.84;5018273;28;20104;-63
2022/08/12 09:48:33;;;;;;;3.40;1.58;;;;;;;24.25;32.04;97495.31;5016515;28;20034;-64
2022/08/12 09:51:02;;;;;;;3.45;1.60;;;;;;;24.19;32.06;97486.41;5033335;28;20531;-63
2022/08/12 09:53:29;;;;;;;3.33;1.65;;;;;;;24.23;32.27;97478.22;5014412;28;20654;-64
2022/08/12 09:56:07;;;;;;;2.92;1.50;;;;;;;24.32;32.43;97478.94;5014787;28;20541;-63
2022/08/12 09:58:53;;;;;;;4.40;1.60;;;;;;;24.39;31.94;97475.63;5021212;28;20131;-64
2022/08/12 10:01:27;;;;;;;5.03;1.60;;;;;;;24.35;31.77;97471.91;5022707;28;20183;-63
2022/08/12 10:04:14;;;;;;;6.47;1.80;;;;;;;24.44;32.00;97464.38;5012226;28;20096;-64
2022/08/12 10:06:45;;;;;;;5.68;2.00;;;;;;;24.44;32.39;97460.78;5020011;28;20119;-63
2022/08/12 10:09:24;;;;;;;6.68;1.40;;;;;;;24.51;32.17;97472.09;5021860;28;20042;-63
2022/08/12 10:15:09;;;;;;;6.65;1.85;;;;;;;24.74;31.67;97452.28;5025489;28;20821;-63
2022/08/12 10:17:56;;;;;;;7.47;1.65;;;;;;;24.75;31.59;97453.91;5025278;28;20095;-63
2022/08/12 10:20:33;;;;;;;5.38;2.28;;;;;;;24.77;31.30;97444.09;5015198;28;20045;-63
2022/08/12 10:23:00;;;;;;;5.20;1.80;;;;;;;24.72;31.45;97441.56;5021023;28;20093;-63
2022/08/12 10:31:27;;;;;;;2.83;1.50;;;;;;;24.85;30.39;97439.66;5018829;28;20092;-62
2022/08/12 10:34:13;;;;;;;3.53;1.50;;;;;;;24.87;30.09;97429.03;5020467;28;20045;-63
2022/08/12 10:36:59;;;;;;;4.47;1.50;;;;;;;25.06;29.94;97434.00;5021519;28;20044;-62
2022/08/12 10:39:46;;;;;;;2.65;1.65;;;;;;;25.04;29.79;97432.72;5021856;28;20095;-62
2022/08/12 10:45:26;;;;;;;3.33;1.73;;;;;;;25.30;29.27;97426.00;5025167;28;20045;-63
2022/08/12 10:47:55;;;;;;;3.30;1.30;;;;;;;25.48;28.65;97423.78;5025863;28;20051;-63
2022/08/12 10:50:42;;;;;;;3.42;1.30;;;;;;;25.37;28.34;97419.88;5024236;28;20528;-63
2022/08/12 10:53:28;;;;;;;3.40;1.50;;;;;;;25.52;28.10;97415.56;5024529;28;20073;-63
2022/08/12 10:56:15;;;;;;;2.88;1.42;;;;;;;25.60;28.27;97422.19;5024977;28;20049;-63
2022/08/12 10:58:43;;;;;;;4.18;1.40;;;;;;;25.59;27.88;97421.34;5025816;28;20050;-63
2022/08/12 11:01:14;;;;;;;3.28;1.50;;;;;;;25.52;27.66;97421.09;5025492;28;20046;-63
2022/08/12 11:04:04;;;;;;;6.03;1.60;;;;;;;25.58;28.02;97406.69;5025814;28;20049;-62
2022/08/12 11:06:52;;;;;;;4.97;1.27;;;;;;;25.63;28.08;97415.91;5023626;28;20049;-63
2022/08/12 11:09:40;;;;;;;3.03;1.40;;;;;;;25.67;27.78;97398.22;5012682;28;20133;-63
2022/08/12 11:12:28;;;;;;;2.53;1.10;;;;;;;25.74;27.30;97407.91;5023750;28;20049;-63
2022/08/12 11:15:15;;;;;;;2.85;1.50;;;;;;;25.60;27.14;97402.78;5011929;28;20136;-63
2022/08/12 11:17:50;;;;;;;2.28;1.25;;;;;;;25.80;27.64;97409.28;5023491;28;20049;-63
2022/08/12 11:20:23;;;;;;;3.38;1.33;;;;;;;25.76;27.90;97400.84;5024863;28;20099;-63
2022/08/12 11:23:03;;;;;;;3.33;1.20;;;;;;;25.98;27.36;97404.22;5025655;28;20075;-63
2022/08/12 11:25:50;;;;;;;3.08;1.40;;;;;;;26.13;27.41;97410.19;5024401;28;20424;-63
2022/08/12 11:28:23;;;;;;;2.55;1.40;;;;;;;26.32;26.43;97401.97;5024945;28;20156;-63
2022/08/12 11:31:04;;;;;;;2.78;1.30;;;;;;;26.18;27.09;97405.19;5024250;28;20046;-63
2022/08/12 11:33:31;;;;;;;2.90;1.50;;;;;;;26.23;26.65;97396.59;5024109;28;20072;-62
2022/08/12 11:36:18;;;;;;;2.72;1.40;;;;;;;26.14;26.75;97395.94;5024800;28;20053;-62
2022/08/12 11:38:48;;;;;;;2.95;1.48;;;;;;;26.12;26.75;97392.72;5019467;28;20052;-62
2022/08/12 11:41:19;;;;;;;2.20;1.17;;;;;;;26.26;26.70;97384.00;5024325;28;20038;-63
2022/08/12 11:43:58;;;;;;;;;;;;;;;26.27;26.94;97357.84;5018092;28;20188;-63
2022/08/12 11:46:27;;;;;;;3.78;1.40;;;;;;;26.61;26.27;97374.16;5024640;28;19928;-63
2022/08/12 11:48:55;;;;;;;2.15;1.20;;;;;;;26.83;25.73;97372.69;5024615;28;20052;-64
2022/08/12 11:51:22;;;;;;;1.98;1.10;;;;;;;26.96;24.91;97380.97;5024697;28;20056;-64
2022/08/12 11:53:50;;;;;;;3.85;1.20;;;;;;;26.78;24.59;97378.53;5024374;28;20064;-64
2022/08/12 11:56:27;;;;;;;2.35;1.10;;;;;;;26.65;25.38;97377.03;5023675;28;20042;-62
2022/08/12 11:59:06;;;;;;;3.58;1.58;;;;;;;27.02;25.59;97379.53;5024644;28;20048;-62
2022/08/12 12:01:52;;;;;;;4.15;1.23;;;;;;;27.02;24.69;97385.09;5014512;28;20070;-62
2022/08/12 12:04:30;;;;;;;3.38;1.20;;;;;;;26.98;24.87;97371.09;5022112;28;20056;-63
2022/08/12 12:06:57;;;;;;;2.92;1.05;;;;;;;27.17;24.90;97368.72;5023809;28;20051;-63
2022/08/12 12:09:36;;;;;;;2.20;1.30;;;;;;;27.44;24.08;97360.56;5010507;28;20524;-63
2022/08/12 12:12:22;;;;;;;3.58;1.30;;;;;;;27.42;24.40;97358.16;5024446;28;20041;-62
2022/08/12 12:14:50;;;;;;;2.90;1.55;;;;;;;27.13;24.84;97349.22;5012846;28;20064;-63
2022/08/12 12:17:24;;;;;;;3.70;1.38;;;;;;;27.48;24.65;97359.47;5020841;28;20045;-63
2022/08/12 12:19:51;;;;;;;4.53;1.40;;;;;;;27.92;23.89;97365.94;5018455;28;20065;-62
2022/08/12 12:22:19;;;;;;;3.80;1.65;;;;;;;28.04;23.54;97353.81;5022835;28;20045;-62
2022/08/12 12:24:53;;;;;;;3.72;1.40;;;;;;;28.02;24.21;97358.97;5018090;28;20396;-62
2022/08/12 12:27:20;;;;;;;2.97;1.20;;;;;;;27.61;24.37;97360.19;5023018;28;20051;-62
2022/08/12 12:30:07;;;;;;;3.92;1.40;;;;;;;27.75;24.14;97361.63;5024539;28;20103;-62
2022/08/12 12:32:53;;;;;;;2.78;1.13;;;;;;;28.11;23.46;97356.75;5025619;28;20077;-62
2022/08/12 12:35:20;;;;;;;4.47;1.10;;;;;;;27.97;23.73;97348.91;5023869;28;20064;-62
2022/08/12 12:38:08;;;;;;;4.43;1.15;;;;;;;27.94;24.08;97348.88;5019971;28;20610;-62
2022/08/12 12:40:40;;;;;;;2.20;1.23;;;;;;;28.18;23.46;97344.94;5024363;28;20033;-62
2022/08/12 12:43:10;;;;;;;2.85;1.27;;;;;;;28.25;23.60;97355.38;5017392;28;20524;-62
2022/08/12 12:45:38;;;;;;;1.70;1.00;;;;;;;28.66;23.25;97344.56;5013189;28;20046;-62
2022/08/12 12:48:16;;;;;;;3.13;1.25;;;;;;;28.80;23.05;97348.75;5023655;28;20448;-62
2022/08/12 12:53:39;;;;;;;4.47;1.38;;;;;;;28.65;22.82;97337.41;5018963;28;20041;-62
2022/08/12 12:56:26;;;;;;;1.95;1.10;;;;;;;28.92;22.85;97323.50;5019295;28;20134;-63
2022/08/12 12:59:04;;;;;;;3.20;1.27;;;;;;;29.29;22.63;97326.78;5021211;28;20051;-63
2022/08/12 13:01:32;;;;;;;5.93;1.23;;;;;;;29.08;22.58;97330.88;5014901;28;20067;-63
2022/08/12 13:04:09;;;;;;;3.67;1.30;;;;;;;28.59;23.12;97329.75;5027814;28;20440;-63
2022/08/12 13:06:40;;;;;;;2.95;0.95;;;;;;;28.62;23.15;97327.00;5022197;28;20764;-63
2022/08/12 13:09:08;;;;;;;2.92;1.30;;;;;;;28.55;23.34;97319.34;5026890;28;20057;-63
2022/08/12 13:11:39;;;;;;;4.45;1.70;;;;;;;28.69;23.62;97323.50;5017569;28;20527;-63
2022/08/12 13:14:14;;;;;;;3.63;1.50;;;;;;;28.41;24.03;97322.69;5024350;28;20080;-64
2022/08/12 13:16:59;;;;;;;2.08;1.20;;;;;;;27.65;24.70;97327.66;5021791;28;20448;-63
2022/08/12 13:19:34;;;;;;;3.75;1.50;;;;;;;27.47;25.12;97329.25;5019283;28;20108;-64
2022/08/12 13:22:17;;;;;;;4.13;1.30;;;;;;;27.77;24.60;97337.84;5018094;28;20595;-64
2022/08/12 13:24:47;;;;;;;1.75;1.15;;;;;;;28.09;23.96;97319.31;5023456;28;20690;-63
2022/08/12 13:27:20;;;;;;;3.50;1.27;;;;;;;27.99;24.25;97313.19;5026765;28;20069;-63
2022/08/12 13:29:46;;;;;;;2.38;1.20;;;;;;;28.20;23.95;97316.72;5020775;28;20045;-64
2022/08/12 13:32:14;;;;;;;6.75;1.77;;;;;;;28.91;23.25;97319.09;5026336;28;20045;-64
2022/08/12 13:34:58;;;;;;;3.75;1.30;;;;;;;29.77;22.14;97314.22;5027118;28;20077;-65
2022/08/12 13:37:52;;;;;;;4.18;1.30;;;;;;;30.16;21.58;97305.47;5017216;28;20111;-64
2022/08/12 13:40:25;;;;;;;4.45;1.15;;;;;;;30.18;22.10;97310.66;5023270;28;20053;-63
2022/08/12 13:42:56;;;;;;;5.40;1.35;;;;;;;30.25;21.58;97327.47;5026608;28;20045;-64
2022/08/12 13:45:28;;;;;;;4.28;1.30;;;;;;;30.55;21.27;97306.19;5021828;28;20038;-61
2022/08/12 13:48:05;;;;;;;5.18;1.20;;;;;;;30.69;21.00;97306.28;5025675;28;20045;-61
2022/08/12 13:50:35;;;;;;;4.18;1.50;;;;;;;31.20;20.18;97312.19;5026238;28;20056;-61
2022/08/12 13:53:03;;;;;;;3.83;1.25;;;;;;;30.40;21.29;97311.63;5027030;28;20396;-60
2022/08/12 13:55:50;;;;;;;3.67;1.08;;;;;;;30.14;21.66;97318.22;5026237;28;20159;-61
2022/08/12 13:58:29;;;;;;;2.72;1.17;;;;;;;29.74;21.93;97307.41;5026886;28;20045;-61
2022/08/12 14:00:57;;;;;;;2.88;1.33;;;;;;;29.16;22.66;97312.25;5025885;28;20489;-61
2022/08/12 14:03:25;;;;;;;3.30;1.13;;;;;;;29.67;21.89;97307.34;5026924;28;20524;-62
2022/08/12 14:06:12;;;;;;;2.67;1.33;;;;;;;29.40;22.15;97302.59;5025165;28;20076;-61
2022/08/12 14:08:42;;;;;;;2.33;1.23;;;;;;;30.44;21.19;97300.50;5026151;28;20513;-62